createdAt,value
2022-12-26T00:00:16.503Z,100085.72
2022-12-26T00:03:57.050Z,100091.59
2022-12-26T00:06:48.958Z,100092.44
2022-12-26T00:09:53.248Z,100077.59
2022-12-26T00:12:41.699Z,100073.06
2022-12-26T00:16:01.980Z,100070.13
2022-12-26T00:22:20.218Z,100059.94
2022-12-26T00:24:57.306Z,100056.22
2022-12-26T00:28:01.874Z,100045.63
2022-12-26T00:30:40.402Z,100046.28
2022-12-26T00:33:38.633Z,100037.63
2022-12-26T01:01:55.939Z,100014.50
2022-12-26T01:57:17.920Z,99978.28
2022-12-26T03:37:13.676Z,99975.38
2022-12-26T03:40:53.304Z,99967.41
2022-12-26T04:41:05.836Z,99977.91
2022-12-26T04:44:13.500Z,99968.91
2022-12-26T05:03:49.178Z,100010.59
2022-12-26T05:09:53.657Z,100009.84
2022-12-26T05:13:25.195Z,100009.84
2022-12-26T05:17:40.321Z,100009.75
2022-12-26T05:21:37.862Z,100002.22
2022-12-26T05:25:07.170Z,100011.88
2022-12-26T05:32:10.993Z,100021.63
2022-12-26T05:41:36.729Z,100041.59
2022-12-26T05:51:18.263Z,100034.88
2022-12-26T05:57:13.062Z,100040.34
2022-12-26T05:59:39.857Z,100039.16
2022-12-26T06:02:06.650Z,100044.03
2022-12-26T06:04:34.850Z,100041.03
2022-12-26T06:07:01.733Z,100049.13
2022-12-26T06:09:28.495Z,100044.03
2022-12-26T06:11:55.138Z,100052.72
2022-12-26T06:14:21.821Z,100059.50
2022-12-26T06:16:48.530Z,100050.31
2022-12-26T06:19:15.406Z,100061.03
2022-12-26T06:21:42.113Z,100059.31
2022-12-26T06:24:08.810Z,100062.50
2022-12-26T06:26:35.577Z,100057.09
2022-12-26T06:29:02.231Z,100060.06
2022-12-26T06:31:29.001Z,100050.28
2022-12-26T06:33:58.375Z,100045.94
2022-12-26T06:36:27.101Z,100049.72
2022-12-26T06:38:54.944Z,100048.78
2022-12-26T06:41:23.617Z,100043.28
2022-12-26T06:43:50.607Z,100057.59
2022-12-26T06:46:19.877Z,100054.84
2022-12-26T06:48:46.994Z,100057.69
2022-12-26T06:51:16.649Z,100073.59
2022-12-26T06:53:44.761Z,100090.38
2022-12-26T06:56:37.535Z,100101.13
2022-12-26T06:59:06.085Z,100113.41
2022-12-26T07:01:34.581Z,100101.13
2022-12-26T07:04:01.597Z,100107.25
2022-12-26T07:06:30.622Z,100106.50
2022-12-26T07:09:05.617Z,100103.84
2022-12-26T07:11:36.643Z,100105.44
2022-12-26T07:14:04.530Z,100104.50
2022-12-26T07:16:31.525Z,100109.78
2022-12-26T07:18:59.384Z,100117.56
2022-12-26T07:21:27.648Z,100113.41
2022-12-26T07:23:55.095Z,100119.34
2022-12-26T07:26:22.848Z,100118.44
2022-12-26T07:28:53.244Z,100109.41
2022-12-26T07:31:20.792Z,100115.78
2022-12-26T07:33:49.000Z,100125.59
2022-12-26T07:36:15.857Z,100130.66
2022-12-26T07:38:42.811Z,100120.88
2022-12-26T07:41:28.291Z,100130.53
2022-12-26T07:43:54.982Z,100130.66
2022-12-26T07:46:21.766Z,100127.03
2022-12-26T07:48:48.478Z,100128.41
2022-12-26T07:51:15.581Z,100128.53
2022-12-26T07:53:43.082Z,100118.88
2022-12-26T07:56:09.739Z,100121.53
2022-12-26T07:58:36.436Z,100136.91
2022-12-26T08:01:05.096Z,100147.44
2022-12-26T08:03:33.002Z,100146.66
2022-12-26T08:06:00.043Z,100143.06
2022-12-26T08:08:27.686Z,100142.88
2022-12-26T08:11:05.501Z,100134.91
2022-12-26T08:13:32.714Z,100134.16
2022-12-26T08:16:00.831Z,100131.16
2022-12-26T08:18:27.512Z,100132.16
2022-12-26T08:20:54.202Z,100146.56
2022-12-26T08:23:20.856Z,100136.50
2022-12-26T08:25:47.593Z,100137.75
2022-12-26T08:28:14.293Z,100144.25
2022-12-26T08:30:43.747Z,100150.94
2022-12-26T08:33:11.286Z,100145.19
2022-12-26T08:35:38.854Z,100146.16
2022-12-26T08:38:06.170Z,100145.09
2022-12-26T08:40:42.966Z,100144.25
2022-12-26T08:43:32.134Z,100148.19
2022-12-26T08:46:02.272Z,100152.72
2022-12-26T08:48:29.843Z,100145.72
2022-12-26T08:51:00.830Z,100159.75
2022-12-26T08:53:29.249Z,100162.50
2022-12-26T08:55:56.747Z,100169.59
2022-12-26T08:58:23.526Z,100165.88
2022-12-26T09:00:55.024Z,100157.09
2022-12-26T09:03:22.251Z,100158.88
2022-12-26T09:05:48.973Z,100151.25
2022-12-26T09:08:15.647Z,100154.56
2022-12-26T09:10:42.625Z,100160.81
2022-12-26T09:13:09.320Z,100155.38
2022-12-26T09:15:36.017Z,100166.94
2022-12-26T09:18:02.780Z,100182.97
2022-12-26T09:20:29.468Z,100182.88
2022-12-26T09:22:56.142Z,100175.78
2022-12-26T09:25:25.375Z,100184.78
2022-12-26T09:27:59.053Z,100192.66
2022-12-26T09:30:26.449Z,100184.78
2022-12-26T09:32:54.083Z,100182.88
2022-12-26T09:35:20.870Z,100188.59
2022-12-26T09:37:47.648Z,100182.06
2022-12-26T09:40:27.518Z,100183.31
2022-12-26T09:43:15.297Z,100185.78
2022-12-26T09:46:07.140Z,100182.13
2022-12-26T09:48:47.200Z,100191.69
2022-12-26T09:51:13.923Z,100185.53
2022-12-26T09:53:44.017Z,100180.88
2022-12-26T09:56:37.029Z,100183.44
2022-12-26T09:59:06.519Z,100181.84
2022-12-26T10:01:36.678Z,100188.63
2022-12-26T10:04:22.260Z,100194.78
2022-12-26T10:07:18.048Z,100185.22
2022-12-26T10:09:56.263Z,100197.66
2022-12-26T10:12:38.305Z,100202.66
2022-12-26T10:15:15.043Z,100194.78
2022-12-26T10:17:51.332Z,100205.41
2022-12-26T10:20:49.653Z,100208.03
2022-12-26T10:23:30.603Z,100209.03
2022-12-26T10:26:04.017Z,100213.56
2022-12-26T10:28:34.941Z,100219.00
2022-12-26T10:31:07.082Z,100219.72
2022-12-26T10:33:58.834Z,100213.03
2022-12-26T10:36:55.189Z,100198.94
2022-12-26T10:39:47.662Z,100208.78
2022-12-26T10:42:24.028Z,100200.09
2022-12-26T10:44:50.687Z,100198.38
2022-12-26T10:47:24.690Z,100219.63
2022-12-26T10:49:51.883Z,100206.56
2022-12-26T10:52:23.513Z,100193.38
2022-12-26T10:55:29.207Z,100204.09
2022-12-26T10:57:42.961Z,100192.66
2022-12-26T11:00:29.317Z,100200.72
2022-12-26T11:03:05.703Z,100200.72
2022-12-26T11:08:29.186Z,100192.94
2022-12-26T11:11:05.007Z,100192.66
2022-12-26T11:13:37.367Z,100206.97
2022-12-26T11:16:05.376Z,100205.47
2022-12-26T11:18:40.070Z,100210.97
2022-12-26T11:21:18.990Z,100212.56
2022-12-26T11:23:47.291Z,100214.59
2022-12-26T11:26:29.824Z,100205.78
2022-12-26T11:29:15.707Z,100198.75
2022-12-26T11:31:58.219Z,100208.53
2022-12-26T11:34:34.524Z,100204.81
2022-12-26T11:37:01.938Z,100201.34
2022-12-26T11:39:35.406Z,100195.16
2022-12-26T11:42:10.924Z,100196.88
2022-12-26T11:44:41.453Z,100195.81
2022-12-26T11:47:10.948Z,100211.94
2022-12-26T11:49:54.540Z,100203.00
2022-12-26T11:52:33.566Z,100221.19
2022-12-26T11:55:01.058Z,100214.94
2022-12-26T11:57:30.394Z,100220.13
2022-12-26T12:00:16.060Z,100208.75
2022-12-26T12:02:43.204Z,100221.06
2022-12-26T12:05:55.149Z,100208.75
2022-12-26T12:08:40.380Z,100214.81
2022-12-26T12:11:17.223Z,100212.06
2022-12-26T12:14:16.764Z,100209.63
2022-12-26T12:17:01.403Z,100212.56
2022-12-26T12:19:56.064Z,100211.84
2022-12-26T12:22:45.110Z,100208.72
2022-12-26T12:25:22.499Z,100202.47
2022-12-26T12:28:04.411Z,100205.41
2022-12-26T12:31:00.129Z,100200.22
2022-12-26T12:33:35.107Z,100192.91
2022-12-26T12:36:29.336Z,100183.41
2022-12-26T12:39:35.924Z,100179.72
2022-12-26T12:42:45.131Z,100184.19
2022-12-26T12:45:27.348Z,100179.53
2022-12-26T12:48:21.485Z,100178.50
2022-12-26T12:51:10.028Z,100165.13
2022-12-26T12:53:57.376Z,100170.63
2022-12-26T12:56:47.099Z,100175.75
2022-12-26T12:59:22.855Z,100183.72
2022-12-26T13:01:57.303Z,100184.66
2022-12-26T13:04:29.737Z,100177.63
2022-12-26T13:07:09.095Z,100174.81
2022-12-26T13:10:06.825Z,100176.81
2022-12-26T13:12:38.722Z,100174.81
2022-12-26T13:15:09.480Z,100176.47
2022-12-26T13:17:37.846Z,100178.66
2022-12-26T13:20:16.158Z,100168.72
2022-12-26T13:23:14.867Z,100187.63
2022-12-26T13:25:44.948Z,100183.59
2022-12-26T13:28:32.667Z,100184.53
2022-12-26T13:30:59.439Z,100181.06
2022-12-26T13:33:27.258Z,100187.31
2022-12-26T13:35:58.384Z,100192.94
2022-12-26T13:38:47.935Z,100184.16
2022-12-26T13:41:36.635Z,100181.50
2022-12-26T13:44:08.401Z,100171.72
2022-12-26T13:46:42.364Z,100185.34
2022-12-26T13:49:27.633Z,100190.03
2022-12-26T13:51:56.874Z,100177.03
2022-12-26T13:54:25.975Z,100188.41
2022-12-26T13:57:12.397Z,100186.81
2022-12-26T13:59:56.763Z,100183.63
2022-12-26T14:03:16.889Z,100197.50
2022-12-26T14:05:58.218Z,100195.50
2022-12-26T14:08:56.844Z,100193.50
2022-12-26T14:11:46.723Z,100207.28
2022-12-26T14:14:25.718Z,100194.78
2022-12-26T14:17:20.398Z,100197.44
2022-12-26T14:20:13.623Z,100203.81
2022-12-26T14:23:18.442Z,100213.44
2022-12-26T14:26:07.922Z,100207.28
2022-12-26T14:29:07.274Z,100210.72
2022-12-26T14:31:51.771Z,100204.53
2022-12-26T14:34:27.345Z,100209.94
2022-12-26T14:37:31.813Z,100217.47
2022-12-26T14:40:04.460Z,100209.50
2022-12-26T14:42:50.134Z,100204.41
2022-12-26T14:45:26.015Z,100201.00
2022-12-26T14:47:52.841Z,100212.56
2022-12-26T14:50:39.618Z,100206.41
2022-12-26T14:53:24.752Z,100206.72
2022-12-26T14:55:54.220Z,100202.81
2022-12-26T14:58:21.266Z,100210.78
2022-12-26T15:00:51.576Z,100199.22
2022-12-26T15:04:12.264Z,100212.91
2022-12-26T15:06:49.372Z,100235.91
2022-12-26T15:09:19.026Z,100209.56
2022-12-26T15:12:02.054Z,100204.34
2022-12-26T15:14:41.904Z,100201.50
2022-12-26T15:17:21.795Z,100195.44
2022-12-26T15:19:54.772Z,100212.78
2022-12-26T15:22:34.211Z,100221.59
2022-12-26T15:25:22.798Z,100215.53
2022-12-26T15:28:41.887Z,100219.03
2022-12-26T15:31:30.615Z,100201.13
2022-12-26T15:34:19.729Z,100193.91
2022-12-26T15:36:57.177Z,100207.19
2022-12-26T15:39:39.523Z,100199.22
2022-12-26T15:42:38.105Z,100194.22
2022-12-26T15:45:14.187Z,100190.06
2022-12-26T15:47:55.568Z,100195.63
2022-12-26T15:50:33.388Z,100191.19
2022-12-26T15:53:30.033Z,100187.50
2022-12-26T15:56:22.205Z,100189.38
2022-12-26T15:59:05.728Z,100196.97
2022-12-26T16:01:39.635Z,100189.19
2022-12-26T16:04:14.782Z,100190.91
2022-12-26T16:07:09.001Z,100198.09
2022-12-26T16:09:52.051Z,100206.00
2022-12-26T16:12:24.791Z,100190.31
2022-12-26T16:15:11.751Z,100200.09
2022-12-26T16:17:40.561Z,100193.19
2022-12-26T16:20:59.151Z,100194.25
2022-12-26T16:23:29.145Z,100207.28
2022-12-26T16:25:59.657Z,100208.72
2022-12-26T16:28:29.693Z,100214.19
2022-12-26T16:30:57.027Z,100208.81
2022-12-26T16:33:23.862Z,100212.41
2022-12-26T16:35:54.872Z,100209.38
2022-12-26T16:38:28.145Z,100204.00
2022-12-26T16:40:56.490Z,100224.16
2022-12-26T16:43:27.035Z,100211.72
2022-12-26T16:46:00.251Z,100236.56
2022-12-26T16:48:29.300Z,100233.16
2022-12-26T16:51:01.770Z,100241.38
2022-12-26T16:53:34.740Z,100262.06
2022-12-26T16:56:31.459Z,100259.97
2022-12-26T16:59:09.682Z,100263.63
2022-12-26T17:01:38.305Z,100274.56
2022-12-26T17:04:20.322Z,100295.53
2022-12-26T17:06:52.153Z,100284.38
2022-12-26T17:09:20.246Z,100286.34
2022-12-26T17:11:56.400Z,100263.97
2022-12-26T17:14:33.689Z,100264.13
2022-12-26T17:17:03.571Z,100272.84
2022-12-26T17:19:37.372Z,100269.72
2022-12-26T17:22:19.025Z,100271.22
2022-12-26T17:24:48.023Z,100273.97
2022-12-26T17:27:23.878Z,100283.22
2022-12-26T17:30:02.220Z,100292.22
2022-12-26T17:32:44.065Z,100298.38
2022-12-26T17:35:14.572Z,100287.56
2022-12-26T17:37:41.787Z,100283.72
2022-12-26T17:40:38.714Z,100295.53
2022-12-26T17:43:11.826Z,100292.72
2022-12-26T17:45:46.373Z,100289.09
2022-12-26T17:48:14.485Z,100304.97
2022-12-26T17:50:43.778Z,100306.44
2022-12-26T17:53:24.832Z,100288.25
2022-12-26T17:55:55.455Z,100288.94
2022-12-26T17:58:23.456Z,100295.34
2022-12-26T18:00:51.105Z,100302.44
2022-12-26T18:03:17.881Z,100292.72
2022-12-26T18:05:46.622Z,100300.81
2022-12-26T18:08:38.592Z,100305.72
2022-12-26T18:11:10.982Z,100311.69
2022-12-26T18:13:38.267Z,100309.31
2022-12-26T18:16:05.913Z,100323.78
2022-12-26T18:18:35.398Z,100312.59
2022-12-26T18:21:03.670Z,100316.19
2022-12-26T18:23:30.566Z,100318.09
2022-12-26T18:26:00.399Z,100327.81
2022-12-26T18:28:27.467Z,100336.22
2022-12-26T18:30:55.264Z,100330.94
2022-12-26T18:33:21.911Z,100324.97
2022-12-26T18:35:48.566Z,100337.16
2022-12-26T18:38:16.700Z,100345.25
2022-12-26T18:40:53.649Z,100334.03
2022-12-26T18:43:20.539Z,100337.09
2022-12-26T18:45:47.303Z,100355.97
2022-12-26T18:48:16.854Z,100364.19
2022-12-26T18:50:44.138Z,100353.84
2022-12-26T18:53:11.203Z,100341.56
2022-12-26T18:55:38.807Z,100343.66
2022-12-26T18:58:06.579Z,100349.78
2022-12-26T19:00:33.602Z,100360.88
2022-12-26T19:03:00.285Z,100375.31
2022-12-26T19:05:31.022Z,100375.44
2022-12-26T19:07:59.181Z,100402.66
2022-12-26T19:10:29.560Z,100397.06
2022-12-26T19:13:02.861Z,100398.41
2022-12-26T19:15:33.471Z,100402.75
2022-12-26T19:18:00.448Z,100420.38
2022-12-26T19:20:28.055Z,100408.88
2022-12-26T19:22:55.587Z,100419.84
2022-12-26T19:25:23.943Z,100426.13
2022-12-26T19:27:50.868Z,100423.34
2022-12-26T19:30:18.767Z,100436.81
2022-12-26T19:32:45.586Z,100441.63
2022-12-26T19:35:13.034Z,100438.28
2022-12-26T19:37:39.981Z,100441.78
2022-12-26T19:40:07.870Z,100435.34
2022-12-26T19:42:37.332Z,100444.53
2022-12-26T19:45:05.465Z,100443.69
2022-12-26T19:47:32.829Z,100446.53
2022-12-26T19:49:59.793Z,100455.72
2022-12-26T19:52:26.837Z,100456.47
2022-12-26T19:54:53.939Z,100464.09
2022-12-26T19:57:30.791Z,100474.00
2022-12-26T19:59:57.816Z,100477.88
2022-12-26T20:02:24.861Z,100485.56
2022-12-26T20:04:51.813Z,100498.69
2022-12-26T20:07:18.632Z,100503.63
2022-12-26T20:09:47.171Z,100508.13
2022-12-26T20:12:13.965Z,100518.69
2022-12-26T20:14:40.875Z,100519.59
2022-12-26T20:17:09.680Z,100522.81
2022-12-26T20:19:36.880Z,100541.22
2022-12-26T20:22:04.506Z,100545.84
2022-12-26T20:24:31.451Z,100537.94
2022-12-26T20:26:58.509Z,100545.56
2022-12-26T20:29:25.239Z,100540.38
2022-12-26T20:31:55.956Z,100551.75
2022-12-26T20:34:22.863Z,100553.56
2022-12-26T20:36:49.925Z,100554.91
2022-12-26T20:39:19.229Z,100542.59
2022-12-26T20:41:46.285Z,100544.47
2022-12-26T20:44:17.003Z,100549.56
2022-12-26T20:46:44.705Z,100559.06
2022-12-26T20:49:12.431Z,100549.50
2022-12-26T20:51:41.601Z,100560.78
2022-12-26T20:54:10.382Z,100564.56
2022-12-26T20:56:38.294Z,100572.06
2022-12-26T20:59:06.544Z,100563.19
2022-12-26T21:01:33.486Z,100561.56
2022-12-26T21:04:00.340Z,100586.44
2022-12-26T21:06:36.367Z,100577.06
2022-12-26T21:09:05.529Z,100579.19
2022-12-26T21:11:35.092Z,100581.84
2022-12-26T21:14:06.813Z,100578.75
2022-12-26T21:16:42.656Z,100585.19
2022-12-26T21:19:14.976Z,100584.63
2022-12-26T21:21:47.192Z,100594.50
2022-12-26T21:24:23.071Z,100602.41
2022-12-26T21:26:51.524Z,100597.22
2022-12-26T21:29:25.784Z,100600.09
2022-12-26T21:31:53.114Z,100600.56
2022-12-26T21:34:24.221Z,100602.88
2022-12-26T21:37:17.767Z,100609.47
2022-12-26T21:39:45.210Z,100626.44
2022-12-26T21:42:13.136Z,100628.00
2022-12-26T21:44:39.896Z,100619.94
2022-12-26T21:47:10.188Z,100623.03
2022-12-26T21:49:37.505Z,100638.22
2022-12-26T21:52:06.085Z,100644.56
2022-12-26T21:54:54.977Z,100657.38
2022-12-26T21:57:24.272Z,100654.06
2022-12-26T22:00:00.105Z,100655.81
2022-12-26T22:02:54.294Z,100663.56
2022-12-26T22:05:23.841Z,100677.53
2022-12-26T22:07:55.664Z,100673.09
2022-12-26T22:10:46.774Z,100668.16
2022-12-26T22:13:13.786Z,100666.03
2022-12-26T22:16:04.075Z,100672.19
2022-12-26T22:18:37.075Z,100690.06
2022-12-26T22:21:09.517Z,100678.81
2022-12-26T22:23:37.763Z,100694.44
2022-12-26T22:26:05.674Z,100691.69
2022-12-26T22:28:33.090Z,100705.09
2022-12-26T22:31:00.774Z,100698.66
2022-12-26T22:33:29.534Z,100720.53
2022-12-26T22:35:58.447Z,100735.59
2022-12-26T22:38:25.560Z,100739.47
2022-12-26T22:40:54.360Z,100745.91
2022-12-26T22:43:21.441Z,100735.31
2022-12-26T22:45:48.245Z,100743.16
2022-12-26T22:48:15.005Z,100752.56
2022-12-26T22:50:44.379Z,100751.94
2022-12-26T22:53:12.202Z,100763.38
2022-12-26T22:55:47.895Z,100764.59
2022-12-26T22:58:15.915Z,100769.94
2022-12-26T23:00:42.804Z,100788.50
2022-12-26T23:03:10.000Z,100780.47
2022-12-26T23:05:38.846Z,100785.88
2022-12-26T23:08:06.644Z,100776.00
2022-12-26T23:10:33.966Z,100784.16
2022-12-26T23:13:01.278Z,100778.19
2022-12-26T23:15:28.858Z,100776.13
2022-12-26T23:18:32.699Z,100784.84
2022-12-26T23:21:22.064Z,100775.03
2022-12-26T23:23:49.060Z,100787.47
2022-12-26T23:26:15.978Z,100789.66
2022-12-26T23:29:01.550Z,100792.38
2022-12-26T23:31:28.528Z,100795.06
2022-12-26T23:33:57.682Z,100790.72
2022-12-26T23:36:24.604Z,100785.63
2022-12-26T23:38:51.971Z,100789.34
2022-12-26T23:41:21.279Z,100784.91
2022-12-26T23:43:48.027Z,100780.66
2022-12-26T23:46:14.924Z,100787.00
2022-12-26T23:48:41.792Z,100790.47
2022-12-26T23:51:08.894Z,100794.06
2022-12-26T23:53:36.222Z,100790.75
2022-12-26T23:56:03.372Z,100795.06
2022-12-26T23:58:30.277Z,100788.88
